sensor_id;sensor_type;location;lat;lon;timestamp;pressure;altitude;pressure_sealevel;temperature;humidity
7058;BME280;3570;43.080;25.628;2022-09-09T00:02:22;-20093.84;;;22.06;68.56
7058;BME280;3570;43.080;25.628;2022-09-09T00:05:23;-20088.19;;;21.87;68.01
7058;BME280;3570;43.080;25.628;2022-09-09T00:08:18;-20089.06;;;21.90;67.66
7058;BME280;3570;43.080;25.628;2022-09-09T00:11:03;-20090.78;;;21.96;67.76
7058;BME280;3570;43.080;25.628;2022-09-09T00:13:52;-20089.06;;;21.90;67.66
7058;BME280;3570;43.080;25.628;2022-09-09T00:16:41;-20086.16;;;21.80;68.30
7058;BME280;3570;43.080;25.628;2022-09-09T00:19:33;-20083.13;;;21.69;68.89
7058;BME280;3570;43.080;25.628;2022-09-09T00:22:25;-20080.38;;;21.60;69.70
7058;BME280;3570;43.080;25.628;2022-09-09T00:25:15;-20079.34;;;21.56;69.68
7058;BME280;3570;43.080;25.628;2022-09-09T00:28:29;-20079.50;;;21.57;70.17
7058;BME280;3570;43.080;25.628;2022-09-09T00:31:21;-20080.38;;;21.60;69.71
7058;BME280;3570;43.080;25.628;2022-09-09T00:34:33;-20080.38;;;21.60;69.72
7058;BME280;3570;43.080;25.628;2022-09-09T00:37:19;-20079.94;;;21.58;70.36
7058;BME280;3570;43.080;25.628;2022-09-09T00:40:16;-20080.22;;;21.59;69.52
7058;BME280;3570;43.080;25.628;2022-09-09T00:43:25;-20081.53;;;21.64;69.57
7058;BME280;3570;43.080;25.628;2022-09-09T00:46:16;-20082.41;;;21.67;69.76
7058;BME280;3570;43.080;25.628;2022-09-09T00:58:24;-20073.41;;;21.35;71.18
7058;BME280;3570;43.080;25.628;2022-09-09T01:01:13;-20068.94;;;21.20;72.19
7058;BME280;3570;43.080;25.628;2022-09-09T01:03:57;-20067.34;;;21.14;72.83
7058;BME280;3570;43.080;25.628;2022-09-09T01:06:48;-20065.03;;;21.06;72.98
7058;BME280;3570;43.080;25.628;2022-09-09T01:09:45;-20067.91;;;21.16;72.72
7058;BME280;3570;43.080;25.628;2022-09-09T01:12:43;-20067.34;;;21.14;72.75
7058;BME280;3570;43.080;25.628;2022-09-09T01:15:30;-20069.94;;;21.23;74.65
7058;BME280;3570;43.080;25.628;2022-09-09T01:18:17;-20083.25;;;21.70;73.63
7058;BME280;3570;43.080;25.628;2022-09-09T01:21:05;-20075.44;;;21.42;73.10
7058;BME280;3570;43.080;25.628;2022-09-09T01:27:03;-20065.88;;;21.09;75.06
7058;BME280;3570;43.080;25.628;2022-09-09T01:29:49;-20064.16;;;21.03;74.47
7058;BME280;3570;43.080;25.628;2022-09-09T01:32:48;-20058.34;;;20.83;74.46
7058;BME280;3570;43.080;25.628;2022-09-09T01:38:29;-20064.88;;;21.06;74.00
7058;BME280;3570;43.080;25.628;2022-09-09T01:41:15;-20064.88;;;21.06;73.76
7058;BME280;3570;43.080;25.628;2022-09-09T01:43:59;-20063.28;;;21.00;74.04
7058;BME280;3570;43.080;25.628;2022-09-09T01:46:44;-20064.72;;;21.05;74.19
7058;BME280;3570;43.080;25.628;2022-09-09T01:49:28;-20061.97;;;20.96;74.47
7058;BME280;3570;43.080;25.628;2022-09-09T01:52:12;-20061.25;;;20.93;74.20
7058;BME280;3570;43.080;25.628;2022-09-09T01:54:56;-20061.25;;;20.93;74.48
7058;BME280;3570;43.080;25.628;2022-09-09T02:01:38;-20058.06;;;20.82;75.05
7058;BME280;3570;43.080;25.628;2022-09-09T02:10:16;-20052.56;;;20.63;76.23
7058;BME280;3570;43.080;25.628;2022-09-09T02:13:07;-20055.88;;;20.75;76.55
7058;BME280;3570;43.080;25.628;2022-09-09T02:19:16;-20059.94;;;20.89;76.30
7058;BME280;3570;43.080;25.628;2022-09-09T02:22:08;-20066.47;;;21.11;75.01
7058;BME280;3570;43.080;25.628;2022-09-09T02:24:55;-20076.03;;;21.44;75.32
7058;BME280;3570;43.080;25.628;2022-09-09T02:27:44;-20083.84;;;21.72;74.58
7058;BME280;3570;43.080;25.628;2022-09-09T02:30:32;-20088.19;;;21.87;73.77
7058;BME280;3570;43.080;25.628;2022-09-09T02:33:18;-20083.97;;;21.72;73.83
7058;BME280;3570;43.080;25.628;2022-09-09T02:36:03;-20086.75;;;21.82;74.38
7058;BME280;3570;43.080;25.628;2022-09-09T02:38:51;-20077.31;;;21.49;73.71
7058;BME280;3570;43.080;25.628;2022-09-09T02:41:39;-20075.59;;;21.43;75.20
7058;BME280;3570;43.080;25.628;2022-09-09T02:44:24;-20068.50;;;21.18;75.22
7058;BME280;3570;43.080;25.628;2022-09-09T02:50:19;-20070.38;;;21.25;76.12
7058;BME280;3570;43.080;25.628;2022-09-09T02:56:04;-20061.97;;;20.96;75.65
7058;BME280;3570;43.080;25.628;2022-09-09T02:58:48;-20058.06;;;20.82;78.07
7058;BME280;3570;43.080;25.628;2022-09-09T03:01:34;-20059.06;;;20.86;77.51
7058;BME280;3570;43.080;25.628;2022-09-09T03:04:19;-20054.16;;;20.69;76.44
7058;BME280;3570;43.080;25.628;2022-09-09T03:07:04;-20055.75;;;20.74;80.17
7058;BME280;3570;43.080;25.628;2022-09-09T03:09:48;-20060.09;;;20.89;75.45
7058;BME280;3570;43.080;25.628;2022-09-09T03:12:32;-20051.25;;;20.58;73.25
7058;BME280;3570;43.080;25.628;2022-09-09T03:15:17;-20048.50;;;20.49;75.86
7058;BME280;3570;43.080;25.628;2022-09-09T03:18:01;-20048.94;;;20.50;75.91
7058;BME280;3570;43.080;25.628;2022-09-09T03:20:46;-20060.09;;;20.89;80.52
7058;BME280;3570;43.080;25.628;2022-09-09T03:23:31;-20061.69;;;20.95;80.05
7058;BME280;3570;43.080;25.628;2022-09-09T03:26:16;-20061.25;;;20.93;80.52
7058;BME280;3570;43.080;25.628;2022-09-09T03:28:59;-20054.16;;;20.69;78.40
7058;BME280;3570;43.080;25.628;2022-09-09T03:31:44;-20035.16;;;20.03;78.52
7058;BME280;3570;43.080;25.628;2022-09-09T03:34:28;-20031.53;;;19.90;78.28
7058;BME280;3570;43.080;25.628;2022-09-09T03:37:12;-20027.47;;;19.76;78.97
7058;BME280;3570;43.080;25.628;2022-09-09T03:39:56;-20029.06;;;19.82;77.55
7058;BME280;3570;43.080;25.628;2022-09-09T03:42:40;-20025.88;;;19.70;75.99
7058;BME280;3570;43.080;25.628;2022-09-09T03:45:24;-20025.88;;;19.70;76.08
7058;BME280;3570;43.080;25.628;2022-09-09T03:48:08;-20032.84;;;19.95;75.78
7058;BME280;3570;43.080;25.628;2022-09-09T03:50:56;-20033.72;;;19.98;75.68
7058;BME280;3570;43.080;25.628;2022-09-09T03:53:42;-20032.25;;;19.93;74.52
7058;BME280;3570;43.080;25.628;2022-09-09T03:56:26;-20046.03;;;20.40;79.61
7058;BME280;3570;43.080;25.628;2022-09-09T03:59:10;-20042.25;;;20.27;74.87
7058;BME280;3570;43.080;25.628;2022-09-09T04:01:54;-20049.66;;;20.53;74.54
7058;BME280;3570;43.080;25.628;2022-09-09T04:04:38;-20047.50;;;20.45;76.53
7058;BME280;3570;43.080;25.628;2022-09-09T04:07:22;-20056.03;;;20.75;80.27
7058;BME280;3570;43.080;25.628;2022-09-09T04:10:06;-20063.56;;;21.01;79.51
7058;BME280;3570;43.080;25.628;2022-09-09T04:12:52;-20067.03;;;21.13;77.43
7058;BME280;3570;43.080;25.628;2022-09-09T04:15:36;-20059.78;;;20.88;75.93
7058;BME280;3570;43.080;25.628;2022-09-09T04:18:21;-20053.72;;;20.67;73.85
7058;BME280;3570;43.080;25.628;2022-09-09T04:21:05;-20053.00;;;20.65;83.14
7058;BME280;3570;43.080;25.628;2022-09-09T04:23:50;-20065.44;;;21.08;82.19
7058;BME280;3570;43.080;25.628;2022-09-09T04:26:36;-20053.84;;;20.68;82.12
7058;BME280;3570;43.080;25.628;2022-09-09T04:29:20;-20051.09;;;20.58;74.32
7058;BME280;3570;43.080;25.628;2022-09-09T04:32:04;-20044.72;;;20.36;73.66
7058;BME280;3570;43.080;25.628;2022-09-09T04:34:49;-20046.19;;;20.41;72.78
7058;BME280;3570;43.080;25.628;2022-09-09T04:37:33;-20046.75;;;20.43;73.18
7058;BME280;3570;43.080;25.628;2022-09-09T04:40:17;-20045.75;;;20.39;73.80
7058;BME280;3570;43.080;25.628;2022-09-09T04:43:03;-20048.66;;;20.49;72.68
7058;BME280;3570;43.080;25.628;2022-09-09T04:45:50;-20050.25;;;20.55;72.27
7058;BME280;3570;43.080;25.628;2022-09-09T04:48:37;-20049.94;;;20.54;72.49
7058;BME280;3570;43.080;25.628;2022-09-09T04:51:22;-20047.91;;;20.47;75.65
7058;BME280;3570;43.080;25.628;2022-09-09T04:54:06;-20065.44;;;21.08;74.88
7058;BME280;3570;43.080;25.628;2022-09-09T04:56:51;-20066.91;;;21.13;70.05
7058;BME280;3570;43.080;25.628;2022-09-09T04:59:35;-20062.69;;;20.98;71.73
7058;BME280;3570;43.080;25.628;2022-09-09T05:02:19;-20067.91;;;21.16;70.56
7058;BME280;3570;43.080;25.628;2022-09-09T05:05:03;-20074.28;;;21.38;70.53
7058;BME280;3570;43.080;25.628;2022-09-09T05:07:47;-20075.72;;;21.43;71.91
7058;BME280;3570;43.080;25.628;2022-09-09T05:10:33;-20077.47;;;21.49;68.40
7058;BME280;3570;43.080;25.628;2022-09-09T05:16:13;-20079.78;;;21.58;68.68
7058;BME280;3570;43.080;25.628;2022-09-09T05:18:57;-20084.41;;;21.74;68.54
7058;BME280;3570;43.080;25.628;2022-09-09T05:21:42;-20090.34;;;21.94;66.31
7058;BME280;3570;43.080;25.628;2022-09-09T05:24:27;-20094.56;;;22.09;69.68
7058;BME280;3570;43.080;25.628;2022-09-09T05:27:11;-20113.94;;;22.76;70.88
7058;BME280;3570;43.080;25.628;2022-09-09T05:29:56;-20120.44;;;22.99;68.47
7058;BME280;3570;43.080;25.628;2022-09-09T05:32:41;-20126.66;;;23.20;66.29
7058;BME280;3570;43.080;25.628;2022-09-09T05:35:25;-20116.69;;;22.86;65.96
7058;BME280;3570;43.080;25.628;2022-09-09T05:38:09;-20133.47;;;23.44;64.96
7058;BME280;3570;43.080;25.628;2022-09-09T05:40:53;-20131.72;;;23.38;62.36
7058;BME280;3570;43.080;25.628;2022-09-09T05:43:37;-20140.53;;;23.69;63.72
7058;BME280;3570;43.080;25.628;2022-09-09T05:46:23;-20141.41;;;23.72;62.92
7058;BME280;3570;43.080;25.628;2022-09-09T05:49:09;-20148.06;;;23.95;62.96
7058;BME280;3570;43.080;25.628;2022-09-09T05:51:54;-20149.78;;;24.01;62.91
7058;BME280;3570;43.080;25.628;2022-09-09T05:54:37;-20152.97;;;24.12;63.02
7058;BME280;3570;43.080;25.628;2022-09-09T05:57:22;-20154.69;;;24.18;61.87
7058;BME280;3570;43.080;25.628;2022-09-09T06:00:06;-20145.31;;;23.85;62.26
7058;BME280;3570;43.080;25.628;2022-09-09T06:02:51;-20155.56;;;24.21;61.44
7058;BME280;3570;43.080;25.628;2022-09-09T06:05:36;-20164.81;;;24.53;60.63
7058;BME280;3570;43.080;25.628;2022-09-09T06:08:20;-20165.97;;;24.57;60.80
7058;BME280;3570;43.080;25.628;2022-09-09T06:11:07;-20166.97;;;24.61;60.33
7058;BME280;3570;43.080;25.628;2022-09-09T06:13:51;-20167.53;;;24.63;60.82
7058;BME280;3570;43.080;25.628;2022-09-09T06:16:37;-20169.72;;;24.70;60.73
7058;BME280;3570;43.080;25.628;2022-09-09T06:19:21;-20172.59;;;24.80;60.22
7058;BME280;3570;43.080;25.628;2022-09-09T06:22:05;-20177.22;;;24.96;59.50
7058;BME280;3570;43.080;25.628;2022-09-09T06:24:49;-20183.28;;;25.17;58.97
7058;BME280;3570;43.080;25.628;2022-09-09T06:27:34;-20187.31;;;25.32;58.97
7058;BME280;3570;43.080;25.628;2022-09-09T06:30:18;-20192.22;;;25.49;57.53
7058;BME280;3570;43.080;25.628;2022-09-09T06:33:03;-20196.41;;;25.63;57.37
7058;BME280;3570;43.080;25.628;2022-09-09T06:35:52;-20194.53;;;25.57;57.91
7058;BME280;3570;43.080;25.628;2022-09-09T06:38:37;-20188.19;;;25.35;55.81
7058;BME280;3570;43.080;25.628;2022-09-09T06:41:22;-20202.03;;;25.83;53.53
7058;BME280;3570;43.080;25.628;2022-09-09T06:44:07;-20206.34;;;25.98;55.07
7058;BME280;3570;43.080;25.628;2022-09-09T06:46:52;-20209.81;;;26.10;52.67
7058;BME280;3570;43.080;25.628;2022-09-09T06:49:36;-20207.22;;;26.01;52.16
7058;BME280;3570;43.080;25.628;2022-09-09T06:52:20;-20198.56;;;25.71;51.57
7058;BME280;3570;43.080;25.628;2022-09-09T06:55:05;-20197.13;;;25.66;52.33
7058;BME280;3570;43.080;25.628;2022-09-09T06:57:49;-20193.97;;;25.55;54.14
7058;BME280;3570;43.080;25.628;2022-09-09T07:00:35;-20193.66;;;25.54;53.55
7058;BME280;3570;43.080;25.628;2022-09-09T07:03:22;-20204.19;;;25.90;53.72
7058;BME280;3570;43.080;25.628;2022-09-09T07:06:06;-20211.56;;;26.16;53.46
7058;BME280;3570;43.080;25.628;2022-09-09T07:08:55;-20216.75;;;26.34;50.63
7058;BME280;3570;43.080;25.628;2022-09-09T07:11:42;-20218.91;;;26.42;49.83
7058;BME280;3570;43.080;25.628;2022-09-09T07:14:26;-20225.38;;;26.64;49.21
7058;BME280;3570;43.080;25.628;2022-09-09T07:17:11;-20215.16;;;26.29;48.46
7058;BME280;3570;43.080;25.628;2022-09-09T07:19:55;-20222.94;;;26.56;48.20
7058;BME280;3570;43.080;25.628;2022-09-09T07:22:41;-20231.44;;;26.85;47.86
7058;BME280;3570;43.080;25.628;2022-09-09T07:25:25;-20232.31;;;26.88;47.69
7058;BME280;3570;43.080;25.628;2022-09-09T07:28:12;-20235.75;;;27.01;46.82
7058;BME280;3570;43.080;25.628;2022-09-09T07:30:58;-20249.16;;;27.47;46.62
7058;BME280;3570;43.080;25.628;2022-09-09T07:33:43;-20243.09;;;27.26;46.43
7058;BME280;3570;43.080;25.628;2022-09-09T07:36:30;-20248.28;;;27.44;46.22
7058;BME280;3570;43.080;25.628;2022-09-09T07:39:15;-20256.50;;;27.73;46.16
7058;BME280;3570;43.080;25.628;2022-09-09T07:42:01;-20275.47;;;28.39;44.56
7058;BME280;3570;43.080;25.628;2022-09-09T07:44:45;-20285.56;;;28.74;44.10
7058;BME280;3570;43.080;25.628;2022-09-09T07:47:29;-20298.78;;;29.21;43.39
7058;BME280;3570;43.080;25.628;2022-09-09T07:50:13;-20313.00;;;29.71;40.94
7058;BME280;3570;43.080;25.628;2022-09-09T07:52:59;-20317.75;;;29.87;42.74
7058;BME280;3570;43.080;25.628;2022-09-09T07:55:43;-20314.44;;;29.76;41.23
7058;BME280;3570;43.080;25.628;2022-09-09T07:58:28;-20313.44;;;29.72;39.37
7058;BME280;3570;43.080;25.628;2022-09-09T08:01:15;-20305.81;;;29.45;40.17
7058;BME280;3570;43.080;25.628;2022-09-09T08:04:05;-20311.41;;;29.65;40.42
7058;BME280;3570;43.080;25.628;2022-09-09T08:06:52;-20310.41;;;29.61;39.95
7058;BME280;3570;43.080;25.628;2022-09-09T08:09:37;-20304.09;;;29.39;39.99
7058;BME280;3570;43.080;25.628;2022-09-09T08:12:21;-20304.97;;;29.42;40.10
7058;BME280;3570;43.080;25.628;2022-09-09T08:15:05;-20319.03;;;29.92;40.39
7058;BME280;3570;43.080;25.628;2022-09-09T08:17:50;-20327.22;;;30.20;38.77
7058;BME280;3570;43.080;25.628;2022-09-09T08:20:36;-20315.59;;;29.80;39.35
7058;BME280;3570;43.080;25.628;2022-09-09T08:23:20;-20296.91;;;29.14;40.08
7058;BME280;3570;43.080;25.628;2022-09-09T08:26:06;-20303.66;;;29.38;40.05
7058;BME280;3570;43.080;25.628;2022-09-09T08:28:54;-20308.97;;;29.56;39.53
7058;BME280;3570;43.080;25.628;2022-09-09T08:31:43;-20312.13;;;29.67;38.71
7058;BME280;3570;43.080;25.628;2022-09-09T08:34:27;-20318.59;;;29.90;38.74
7058;BME280;3570;43.080;25.628;2022-09-09T08:37:12;-20329.81;;;30.29;37.72
7058;BME280;3570;43.080;25.628;2022-09-09T08:39:57;-20328.66;;;30.25;38.06
7058;BME280;3570;43.080;25.628;2022-09-09T08:42:47;-20335.84;;;30.50;37.12
7058;BME280;3570;43.080;25.628;2022-09-09T08:46:07;-20356.63;;;31.23;35.81
7058;BME280;3570;43.080;25.628;2022-09-09T08:48:59;-20353.63;;;31.13;35.55
7058;BME280;3570;43.080;25.628;2022-09-09T08:51:45;-20334.41;;;30.45;37.34
7058;BME280;3570;43.080;25.628;2022-09-09T08:54:34;-20337.13;;;30.55;37.10
7058;BME280;3570;43.080;25.628;2022-09-09T08:57:23;-20350.19;;;31.01;36.41
7058;BME280;3570;43.080;25.628;2022-09-09T09:00:12;-20353.34;;;31.12;36.19
7058;BME280;3570;43.080;25.628;2022-09-09T09:03:13;-20358.22;;;31.29;35.68
7058;BME280;3570;43.080;25.628;2022-09-09T09:11:56;-20391.59;;;32.46;34.98
7058;BME280;3570;43.080;25.628;2022-09-09T09:14:48;-20421.66;;;33.52;32.77
7058;BME280;3570;43.080;25.628;2022-09-09T09:17:32;-20419.38;;;33.44;31.93
7058;BME280;3570;43.080;25.628;2022-09-09T09:20:23;-20402.91;;;32.86;33.88
7058;BME280;3570;43.080;25.628;2022-09-09T09:23:17;-20414.66;;;33.27;33.42
7058;BME280;3570;43.080;25.628;2022-09-09T09:26:07;-20409.78;;;33.10;33.79
7058;BME280;3570;43.080;25.628;2022-09-09T09:28:55;-20399.63;;;32.74;33.70
7058;BME280;3570;43.080;25.628;2022-09-09T09:31:52;-20392.59;;;32.50;34.61
7058;BME280;3570;43.080;25.628;2022-09-09T09:34:39;-20411.06;;;33.14;33.18
7058;BME280;3570;43.080;25.628;2022-09-09T09:37:30;-20410.22;;;33.11;32.88
7058;BME280;3570;43.080;25.628;2022-09-09T09:40:18;-20434.97;;;33.98;32.60
7058;BME280;3570;43.080;25.628;2022-09-09T09:43:03;-20463.25;;;34.98;31.04
7058;BME280;3570;43.080;25.628;2022-09-09T09:45:52;-20449.81;;;34.51;31.49
7058;BME280;3570;43.080;25.628;2022-09-09T09:48:36;-20445.69;;;34.36;31.80
7058;BME280;3570;43.080;25.628;2022-09-09T09:51:22;-20481.81;;;35.63;29.48
7058;BME280;3570;43.080;25.628;2022-09-09T09:57:13;-20523.56;;;37.11;28.69
7058;BME280;3570;43.080;25.628;2022-09-09T10:00:25;-20470.38;;;35.23;29.62
7058;BME280;3570;43.080;25.628;2022-09-09T10:03:21;-20466.38;;;35.09;30.57
7058;BME280;3570;43.080;25.628;2022-09-09T10:06:06;-20476.53;;;35.45;30.22
7058;BME280;3570;43.080;25.628;2022-09-09T10:08:50;-20518.59;;;36.93;28.29
7058;BME280;3570;43.080;25.628;2022-09-09T10:20:54;-20489.06;;;35.89;29.41
7058;BME280;3570;43.080;25.628;2022-09-09T10:26:55;-20443.97;;;34.30;31.29
7058;BME280;3570;43.080;25.628;2022-09-09T10:30:11;-20478.94;;;35.53;30.02
7058;BME280;3570;43.080;25.628;2022-09-09T10:33:08;-20492.66;;;36.02;29.83
7058;BME280;3570;43.080;25.628;2022-09-09T10:36:19;-20516.31;;;36.85;28.64
7058;BME280;3570;43.080;25.628;2022-09-09T10:39:13;-20515.44;;;36.82;28.03
7058;BME280;3570;43.080;25.628;2022-09-09T10:42:05;-20542.66;;;37.78;27.26
7058;BME280;3570;43.080;25.628;2022-09-09T10:50:53;-20580.06;;;39.10;25.64
7058;BME280;3570;43.080;25.628;2022-09-09T10:53:50;-20565.28;;;38.58;26.36
7058;BME280;3570;43.080;25.628;2022-09-09T10:56:37;-20553.47;;;38.16;26.83
7058;BME280;3570;43.080;25.628;2022-09-09T10:59:30;-20532.13;;;37.41;27.65
7058;BME280;3570;43.080;25.628;2022-09-09T11:02:27;-20553.31;;;38.16;26.76
7058;BME280;3570;43.080;25.628;2022-09-09T11:05:20;-20569.84;;;38.74;25.61
7058;BME280;3570;43.080;25.628;2022-09-09T11:08:13;-20544.50;;;37.85;26.88
7058;BME280;3570;43.080;25.628;2022-09-09T11:16:56;-20492.66;;;36.02;29.28
7058;BME280;3570;43.080;25.628;2022-09-09T11:19:42;-20494.22;;;36.07;28.55
7058;BME280;3570;43.080;25.628;2022-09-09T11:22:32;-20485.94;;;35.78;29.51
7058;BME280;3570;43.080;25.628;2022-09-09T11:25:23;-20513.47;;;36.75;28.46
7058;BME280;3570;43.080;25.628;2022-09-09T11:31:21;-20484.66;;;35.73;29.54
7058;BME280;3570;43.080;25.628;2022-09-09T11:37:12;-20511.31;;;36.67;27.78
7058;BME280;3570;43.080;25.628;2022-09-09T11:43:15;-20589.72;;;39.44;25.36
7058;BME280;3570;43.080;25.628;2022-09-09T11:46:02;-20585.47;;;39.29;25.63
7058;BME280;3570;43.080;25.628;2022-09-09T11:49:21;-20531.56;;;37.39;27.72
7058;BME280;3570;43.080;25.628;2022-09-09T11:52:20;-20490.38;;;35.93;29.27
7058;BME280;3570;43.080;25.628;2022-09-09T11:55:25;-20454.97;;;34.69;31.18
7058;BME280;3570;43.080;25.628;2022-09-09T12:00:58;-20581.91;;;39.17;26.45
7058;BME280;3570;43.080;25.628;2022-09-09T12:03:47;-20590.84;;;39.48;25.63
7058;BME280;3570;43.080;25.628;2022-09-09T12:06:33;-20592.00;;;39.53;26.29
7058;BME280;3570;43.080;25.628;2022-09-09T12:09:29;-20585.19;;;39.28;25.94
7058;BME280;3570;43.080;25.628;2022-09-09T12:17:45;-20573.66;;;38.88;26.25
7058;BME280;3570;43.080;25.628;2022-09-09T12:27:05;-20438.09;;;34.09;32.12
7058;BME280;3570;43.080;25.628;2022-09-09T12:29:53;-20437.25;;;34.06;32.79
7058;BME280;3570;43.080;25.628;2022-09-09T12:32:38;-20445.97;;;34.37;32.52
7058;BME280;3570;43.080;25.628;2022-09-09T12:35:27;-20482.94;;;35.67;30.54
7058;BME280;3570;43.080;25.628;2022-09-09T12:38:27;-20476.53;;;35.45;30.59
7058;BME280;3570;43.080;25.628;2022-09-09T12:41:22;-20461.09;;;34.90;31.64
7058;BME280;3570;43.080;25.628;2022-09-09T12:44:09;-20421.66;;;33.52;32.38
7058;BME280;3570;43.080;25.628;2022-09-09T12:46:55;-20401.47;;;32.81;34.26
7058;BME280;3570;43.080;25.628;2022-09-09T12:49:41;-20395.19;;;32.59;34.99
7058;BME280;3570;43.080;25.628;2022-09-09T12:52:35;-20390.75;;;32.43;35.44
7058;BME280;3570;43.080;25.628;2022-09-09T12:55:25;-20377.13;;;31.95;35.74
7058;BME280;3570;43.080;25.628;2022-09-09T12:58:13;-20376.00;;;31.91;36.64
7058;BME280;3570;43.080;25.628;2022-09-09T13:01:02;-20371.81;;;31.77;36.90
7058;BME280;3570;43.080;25.628;2022-09-09T13:03:49;-20372.69;;;31.80;37.31
7058;BME280;3570;43.080;25.628;2022-09-09T13:06:33;-20378.44;;;32.00;36.87
7058;BME280;3570;43.080;25.628;2022-09-09T13:09:18;-20371.41;;;31.75;37.05
7058;BME280;3570;43.080;25.628;2022-09-09T13:12:04;-20366.81;;;31.59;38.06
7058;BME280;3570;43.080;25.628;2022-09-09T13:14:53;-20368.53;;;31.65;37.93
7058;BME280;3570;43.080;25.628;2022-09-09T13:17:40;-20357.34;;;31.26;39.19
7058;BME280;3570;43.080;25.628;2022-09-09T13:20:24;-20351.91;;;31.07;39.72
7058;BME280;3570;43.080;25.628;2022-09-09T13:23:11;-20347.59;;;30.92;39.85
7058;BME280;3570;43.080;25.628;2022-09-09T13:26:00;-20343.44;;;30.77;40.41
7058;BME280;3570;43.080;25.628;2022-09-09T13:28:44;-20347.03;;;30.90;40.37
7058;BME280;3570;43.080;25.628;2022-09-09T13:31:33;-20344.16;;;30.80;40.92
7058;BME280;3570;43.080;25.628;2022-09-09T13:34:34;-20337.84;;;30.57;42.07
7058;BME280;3570;43.080;25.628;2022-09-09T13:37:43;-20335.69;;;30.50;41.88
7058;BME280;3570;43.080;25.628;2022-09-09T13:40:26;-20331.25;;;30.34;42.84
7058;BME280;3570;43.080;25.628;2022-09-09T13:43:20;-20330.38;;;30.31;42.71
7058;BME280;3570;43.080;25.628;2022-09-09T13:52:24;-20324.63;;;30.11;44.58
7058;BME280;3570;43.080;25.628;2022-09-09T13:55:10;-20321.19;;;29.99;44.16
7058;BME280;3570;43.080;25.628;2022-09-09T13:57:57;-20327.66;;;30.22;44.40
7058;BME280;3570;43.080;25.628;2022-09-09T14:00:41;-20335.84;;;30.50;43.09
7058;BME280;3570;43.080;25.628;2022-09-09T14:03:26;-20339.56;;;30.64;43.11
7058;BME280;3570;43.080;25.628;2022-09-09T14:06:10;-20345.03;;;30.83;43.04
7058;BME280;3570;43.080;25.628;2022-09-09T14:08:55;-20343.28;;;30.77;42.30
7058;BME280;3570;43.080;25.628;2022-09-09T14:11:39;-20351.47;;;31.05;42.39
7058;BME280;3570;43.080;25.628;2022-09-09T14:14:24;-20357.63;;;31.27;42.30
7058;BME280;3570;43.080;25.628;2022-09-09T14:17:09;-20346.59;;;30.88;42.86
7058;BME280;3570;43.080;25.628;2022-09-09T14:19:53;-20345.31;;;30.84;43.41
7058;BME280;3570;43.080;25.628;2022-09-09T14:22:37;-20346.44;;;30.88;44.17
7058;BME280;3570;43.080;25.628;2022-09-09T14:25:23;-20337.69;;;30.57;44.29
7058;BME280;3570;43.080;25.628;2022-09-09T14:28:09;-20323.63;;;30.08;45.18
7058;BME280;3570;43.080;25.628;2022-09-09T14:30:54;-20322.19;;;30.03;45.30
7058;BME280;3570;43.080;25.628;2022-09-09T14:33:38;-20320.31;;;29.96;46.27
7058;BME280;3570;43.080;25.628;2022-09-09T14:36:22;-20316.03;;;29.81;47.09
7058;BME280;3570;43.080;25.628;2022-09-09T14:39:08;-20314.16;;;29.75;47.17
7058;BME280;3570;43.080;25.628;2022-09-09T14:41:52;-20313.56;;;29.73;46.75
7058;BME280;3570;43.080;25.628;2022-09-09T14:44:36;-20307.69;;;29.52;48.03
7058;BME280;3570;43.080;25.628;2022-09-09T14:47:21;-20307.13;;;29.50;48.32
7058;BME280;3570;43.080;25.628;2022-09-09T14:50:06;-20300.66;;;29.27;48.56
7058;BME280;3570;43.080;25.628;2022-09-09T14:52:51;-20305.25;;;29.43;49.01
7058;BME280;3570;43.080;25.628;2022-09-09T14:55:36;-20307.25;;;29.50;49.42
7058;BME280;3570;43.080;25.628;2022-09-09T14:58:20;-20304.53;;;29.41;50.46
7058;BME280;3570;43.080;25.628;2022-09-09T15:01:10;-20302.81;;;29.35;50.18
7058;BME280;3570;43.080;25.628;2022-09-09T15:03:59;-20310.84;;;29.63;49.87
7058;BME280;3570;43.080;25.628;2022-09-09T15:06:44;-20314.00;;;29.74;49.90
7058;BME280;3570;43.080;25.628;2022-09-09T15:09:31;-20312.44;;;29.68;49.59
7058;BME280;3570;43.080;25.628;2022-09-09T15:12:15;-20313.00;;;29.71;49.41
7058;BME280;3570;43.080;25.628;2022-09-09T15:15:03;-20312.84;;;29.70;49.60
7058;BME280;3570;43.080;25.628;2022-09-09T15:17:47;-20310.56;;;29.62;50.10
7058;BME280;3570;43.080;25.628;2022-09-09T15:20:31;-20308.13;;;29.53;50.59
7058;BME280;3570;43.080;25.628;2022-09-09T15:23:15;-20306.81;;;29.49;50.79
7058;BME280;3570;43.080;25.628;2022-09-09T15:26:01;-20305.81;;;29.45;51.32
7058;BME280;3570;43.080;25.628;2022-09-09T15:28:46;-20304.38;;;29.40;51.20
7058;BME280;3570;43.080;25.628;2022-09-09T15:31:31;-20303.66;;;29.38;51.51
7058;BME280;3570;43.080;25.628;2022-09-09T15:34:15;-20301.22;;;29.29;52.21
7058;BME280;3570;43.080;25.628;2022-09-09T15:36:59;-20302.50;;;29.34;52.08
7058;BME280;3570;43.080;25.628;2022-09-09T15:39:43;-20295.31;;;29.09;51.70
7058;BME280;3570;43.080;25.628;2022-09-09T15:42:27;-20299.22;;;29.22;52.07
7058;BME280;3570;43.080;25.628;2022-09-09T15:45:11;-20299.94;;;29.25;52.42
7058;BME280;3570;43.080;25.628;2022-09-09T15:47:56;-20298.19;;;29.19;53.11
7058;BME280;3570;43.080;25.628;2022-09-09T15:50:40;-20293.03;;;29.01;53.49
7058;BME280;3570;43.080;25.628;2022-09-09T15:53:24;-20286.41;;;28.77;54.00
7058;BME280;3570;43.080;25.628;2022-09-09T15:56:09;-20286.72;;;28.78;54.36
7058;BME280;3570;43.080;25.628;2022-09-09T15:58:55;-20284.13;;;28.69;54.40
7058;BME280;3570;43.080;25.628;2022-09-09T16:01:39;-20280.09;;;28.55;55.20
7058;BME280;3570;43.080;25.628;2022-09-09T16:04:23;-20276.78;;;28.44;55.58
7058;BME280;3570;43.080;25.628;2022-09-09T16:07:08;-20276.06;;;28.41;56.06
7058;BME280;3570;43.080;25.628;2022-09-09T16:09:52;-20276.34;;;28.42;55.69
7058;BME280;3570;43.080;25.628;2022-09-09T16:12:36;-20275.63;;;28.40;55.94
7058;BME280;3570;43.080;25.628;2022-09-09T16:15:20;-20274.03;;;28.34;56.23
7058;BME280;3570;43.080;25.628;2022-09-09T16:18:06;-20272.31;;;28.28;55.79
7058;BME280;3570;43.080;25.628;2022-09-09T16:20:54;-20272.63;;;28.29;56.07
7058;BME280;3570;43.080;25.628;2022-09-09T16:23:38;-20273.03;;;28.31;56.58
7058;BME280;3570;43.080;25.628;2022-09-09T16:26:23;-20269.59;;;28.19;56.31
7058;BME280;3570;43.080;25.628;2022-09-09T16:29:07;-20269.00;;;28.17;56.58